Grenada, California
Current Conditions -  °F | °C
As of 12:53 AM on Saturday 25 Oct 2014 (Local Time) from KSIY Reporting Station
Clear Clear  
Wind Chill: 59°   Ceiling: Unl
Heat Index: 59°   Visibility: 10mi
Dew Point: 43°   Wind: 26mph
Humidity: 55%   Direction: 160°SSE
Pressure: 29.73"   Gusts: 37mph
Location:  41.65°N, 122.52°W
Report Text: KSIY 250753Z AUTO 16023G32KT 10SM CLR 15/06 A2973 RMK AO2 PK WND 15035/0736 SLP064 T01500061 401890083 $
Loading
Personal Weather Stations






























Interactive Weather Map
Tropical Storm Tracking
New forecast layout! Learn more

10-Day Weather Forecast

Advertisements
Track Severe Weather on mobile